Time;durP1;ratioP1;P1;durP2;ratioP2;P2;SDS_P1;SDS_P2;PMS_P1;PMS_P2;Temp;Humidity;BMP_temperature;BMP_pressure;BME280_temperature;BME280_humidity;BME280_pressure;Samples;Min_cycle;Max_cycle;Signal;HPM_P1;HPM_P2
2022/06/19 00:01:05;;;;;;;6.82;2.30;;;;;;;23.40;57.54;100700.72;2101119;28;20456;-75
2022/06/19 00:02:27;;;;;;;8.90;2.65;;;;;;;23.38;57.61;100702.56;2110275;28;20047;-75
2022/06/19 00:03:54;;;;;;;5.25;2.25;;;;;;;23.38;57.81;100693.59;2105012;28;20563;-75
2022/06/19 00:05:16;;;;;;;9.25;2.72;;;;;;;23.36;57.76;100698.19;2094894;28;20056;-75
2022/06/19 00:06:38;;;;;;;8.10;2.80;;;;;;;23.36;57.49;100707.16;2100492;28;20652;-74
2022/06/19 00:08:02;;;;;;;10.07;2.53;;;;;;;23.35;57.58;100705.41;2093345;28;20047;-75
2022/06/19 00:09:25;;;;;;;9.95;2.25;;;;;;;23.35;57.61;100704.53;2100190;28;20059;-74
2022/06/19 00:10:48;;;;;;;6.88;2.60;;;;;;;23.36;57.60;100709.88;2094374;28;20149;-75
2022/06/19 00:12:12;;;;;;;8.27;2.67;;;;;;;23.36;57.52;100706.28;2102217;28;20188;-75
2022/06/19 00:13:36;;;;;;;8.93;2.83;;;;;;;23.34;57.55;100708.16;2102544;28;20051;-75
2022/06/19 00:14:58;;;;;;;9.70;2.67;;;;;;;23.33;57.57;100706.38;2103016;28;20067;-75
2022/06/19 00:16:19;;;;;;;9.32;2.90;;;;;;;23.33;57.60;100707.25;2104051;28;20093;-75
2022/06/19 00:17:42;;;;;;;5.90;2.45;;;;;;;23.34;57.60;100708.16;2100248;28;20123;-75
2022/06/19 00:19:05;;;;;;;11.38;2.97;;;;;;;23.34;57.48;100708.16;2103005;28;20579;-75
2022/06/19 00:20:26;;;;;;;8.73;2.83;;;;;;;23.33;57.62;100703.69;2103105;28;20040;-75
2022/06/19 00:21:49;;;;;;;5.47;2.40;;;;;;;23.32;57.47;100700.13;2102573;28;20063;-75
2022/06/19 00:23:10;;;;;;;6.90;2.10;;;;;;;23.32;57.59;100705.50;2097066;28;20047;-74
2022/06/19 00:24:33;;;;;;;7.68;2.25;;;;;;;23.31;57.75;100700.16;2098377;28;20052;-75
2022/06/19 00:25:54;;;;;;;9.73;4.05;;;;;;;23.28;57.69;100695.78;2101093;28;20067;-75
2022/06/19 00:27:16;;;;;;;5.55;3.00;;;;;;;23.26;57.86;100707.53;2100756;28;20048;-75
2022/06/19 00:28:40;;;;;;;7.05;2.88;;;;;;;23.26;57.92;100696.78;2105144;28;20048;-75
2022/06/19 00:30:05;;;;;;;13.05;3.10;;;;;;;23.23;58.21;100703.19;2102174;28;20373;-75
2022/06/19 00:31:28;;;;;;;10.52;2.92;;;;;;;23.23;58.34;100697.78;2104683;28;20055;-75
2022/06/19 00:32:49;;;;;;;6.13;2.70;;;;;;;23.23;58.27;100689.72;2102164;28;20516;-75
2022/06/19 00:34:12;;;;;;;6.55;2.45;;;;;;;23.24;58.25;100690.56;2104637;28;20492;-75
2022/06/19 00:35:34;;;;;;;5.75;2.70;;;;;;;23.24;58.21;100698.63;2093139;28;20089;-75
2022/06/19 00:36:56;;;;;;;6.63;2.88;;;;;;;23.22;58.29;100700.53;2091251;28;20095;-74
2022/06/19 00:38:18;;;;;;;10.68;3.10;;;;;;;23.22;58.62;100695.16;2104058;28;20032;-75
2022/06/19 00:39:42;;;;;;;9.90;2.95;;;;;;;23.21;58.52;100698.75;2096931;28;20060;-75
2022/06/19 00:41:04;;;;;;;7.03;2.42;;;;;;;23.21;58.73;100701.47;2098846;28;20051;-75
2022/06/19 00:42:28;;;;;;;7.15;2.88;;;;;;;23.19;58.86;100700.63;2097059;28;20040;-75
2022/06/19 00:43:55;;;;;;;9.98;3.15;;;;;;;23.21;58.77;100699.66;2096087;28;20060;-75
2022/06/19 00:45:32;;;;;;;10.70;3.42;;;;;;;23.23;58.96;100696.91;2100858;28;20062;-75
2022/06/19 00:47:01;;;;;;;9.77;3.80;;;;;;;23.22;58.87;100703.22;2095217;28;20067;-74
2022/06/19 00:48:30;;;;;;;12.10;3.65;;;;;;;23.21;59.06;100691.56;2099386;28;20123;-74
2022/06/19 00:49:56;;;;;;;8.18;3.92;;;;;;;23.22;59.35;100693.34;2104969;28;20044;-74
2022/06/19 00:51:20;;;;;;;8.40;3.88;;;;;;;23.22;59.39;100687.94;2102882;28;20071;-74
2022/06/19 00:52:42;;;;;;;12.45;4.50;;;;;;;23.22;59.38;100684.38;2099893;28;20035;-74
2022/06/19 00:54:06;;;;;;;8.90;4.13;;;;;;;23.21;59.66;100691.56;2102757;28;20492;-74
2022/06/19 00:55:34;;;;;;;8.07;3.85;;;;;;;23.21;59.69;100682.59;2094537;28;20131;-74
2022/06/19 00:56:56;;;;;;;7.70;4.53;;;;;;;23.20;59.95;100675.47;2100873;28;20040;-75
2022/06/19 00:58:21;;;;;;;;;;;;;;;23.18;60.04;100680.00;2092346;28;20492;-75
2022/06/19 00:59:48;;;;;;;12.10;4.13;;;;;;;23.17;60.27;100676.44;2099794;28;19920;-75
2022/06/19 01:01:15;;;;;;;10.48;4.55;;;;;;;23.16;60.30;100674.72;2108569;28;20047;-74
2022/06/19 01:02:40;;;;;;;10.90;3.83;;;;;;;23.15;60.51;100680.16;2110765;28;20063;-75
2022/06/19 01:04:10;;;;;;;13.60;5.10;;;;;;;23.15;60.75;100678.34;2103701;28;20070;-75
2022/06/19 01:05:35;;;;;;;9.60;4.55;;;;;;;23.16;60.74;100674.72;2094791;28;20302;-75
2022/06/19 01:06:58;;;;;;;9.55;5.07;;;;;;;23.15;60.96;100680.16;2091528;28;20075;-75
2022/06/19 01:08:21;;;;;;;14.38;4.95;;;;;;;23.15;60.93;100678.34;2105512;28;20051;-75
2022/06/19 01:09:42;;;;;;;15.10;5.30;;;;;;;23.15;61.17;100681.03;2101521;28;20044;-75
2022/06/19 01:11:06;;;;;;;7.43;4.13;;;;;;;23.15;61.17;100677.44;2092910;28;20032;-75
2022/06/19 01:12:31;;;;;;;11.40;4.93;;;;;;;23.14;61.31;100681.06;2098780;28;20066;-74
2022/06/19 01:13:53;;;;;;;12.65;5.60;;;;;;;23.15;61.48;100674.75;2096890;28;20070;-75
2022/06/19 01:15:21;;;;;;;11.80;4.65;;;;;;;23.15;61.60;100677.44;2096586;28;20040;-75
2022/06/19 01:16:45;;;;;;;16.85;5.78;;;;;;;23.15;61.85;100674.75;2104874;28;20535;-75
2022/06/19 01:18:09;;;;;;;10.68;4.78;;;;;;;23.15;61.79;100674.75;2102603;28;20048;-75
2022/06/19 01:19:36;;;;;;;10.05;4.70;;;;;;;23.17;62.14;100679.13;2101741;28;20048;-75
2022/06/19 01:21:12;;;;;;;10.23;4.07;;;;;;;23.18;62.26;100680.88;2099044;28;20055;-75
2022/06/19 01:22:43;;;;;;;10.02;5.00;;;;;;;23.20;62.19;100672.75;2111173;28;20047;-75
2022/06/19 01:24:16;;;;;;;13.10;5.45;;;;;;;23.18;62.26;100674.63;2104301;28;20117;-75
2022/06/19 01:25:42;;;;;;;10.00;4.07;;;;;;;23.17;62.41;100679.13;2102024;28;20071;-75
2022/06/19 01:27:07;;;;;;;11.48;4.97;;;;;;;23.16;62.37;100679.22;2092299;28;20098;-74
2022/06/19 01:28:54;;;;;;;14.15;4.72;;;;;;;23.15;62.47;100677.44;2093552;28;20032;-75
2022/06/19 01:30:17;;;;;;;17.90;5.70;;;;;;;23.13;62.74;100679.31;2103790;28;20058;-75
2022/06/19 01:31:44;;;;;;;7.97;4.53;;;;;;;23.12;62.86;100677.56;2099044;28;20522;-74
2022/06/19 01:33:12;;;;;;;11.75;5.97;;;;;;;23.13;62.80;100673.94;2102919;28;20094;-74
2022/06/19 01:34:38;;;;;;;9.90;4.82;;;;;;;23.13;62.81;100673.94;2101255;28;20077;-75
2022/06/19 01:36:03;;;;;;;11.40;4.40;;;;;;;23.12;62.87;100678.44;2104397;28;20074;-75
2022/06/19 01:37:28;;;;;;;11.85;5.05;;;;;;;23.12;62.95;100672.16;2099694;28;20051;-75
2022/06/19 01:38:52;;;;;;;14.38;4.60;;;;;;;23.11;63.01;100678.47;2101666;28;20048;-75
2022/06/19 01:40:17;;;;;;;13.35;4.15;;;;;;;23.10;63.09;100680.31;2101394;28;20554;-75
2022/06/19 01:41:42;;;;;;;12.40;5.53;;;;;;;23.09;63.09;100680.38;2101953;28;20048;-75
2022/06/19 01:43:05;;;;;;;10.88;5.00;;;;;;;23.09;63.26;100680.38;2103115;28;20075;-75
2022/06/19 01:44:28;;;;;;;13.00;5.72;;;;;;;23.08;63.34;100673.22;2092348;28;20086;-75
2022/06/19 01:45:53;;;;;;;11.90;4.60;;;;;;;23.08;63.43;100682.19;2099554;28;20067;-75
2022/06/19 01:47:16;;;;;;;9.85;5.00;;;;;;;23.10;63.58;100676.75;2100447;28;20051;-75
2022/06/19 01:48:39;;;;;;;15.85;4.55;;;;;;;23.10;63.48;100674.94;2102315;28;20040;-74
2022/06/19 01:50:00;;;;;;;15.73;4.43;;;;;;;23.12;63.79;100677.56;2102427;28;20411;-75
2022/06/19 01:51:23;;;;;;;11.35;4.03;;;;;;;23.13;63.68;100676.63;2092282;28;20057;-74
2022/06/19 01:52:48;;;;;;;12.95;4.40;;;;;;;23.14;63.68;100675.69;2096946;28;20092;-74
2022/06/19 01:54:18;;;;;;;12.13;5.13;;;;;;;23.14;63.96;100686.47;2094205;28;20127;-74
2022/06/19 01:55:40;;;;;;;14.05;4.30;;;;;;;23.13;63.92;100673.94;2094762;28;20044;-74
2022/06/19 01:57:07;;;;;;;14.68;5.22;;;;;;;23.13;63.92;100674.81;2098302;28;20139;-74
2022/06/19 01:58:31;;;;;;;14.60;4.57;;;;;;;23.13;63.79;100684.69;2094618;28;20508;-74
2022/06/19 01:59:54;;;;;;;12.80;3.75;;;;;;;23.13;63.68;100690.09;2098578;28;20125;-74
2022/06/19 02:01:17;;;;;;;10.45;3.63;;;;;;;23.11;63.57;100691.94;2100491;28;20058;-74
2022/06/19 02:02:41;;;;;;;10.18;3.50;;;;;;;23.09;63.62;100686.66;2106345;28;20059;-74
2022/06/19 02:04:07;;;;;;;10.10;3.67;;;;;;;23.09;63.48;100688.44;2102671;28;20044;-75
2022/06/19 02:05:28;;;;;;;14.77;3.75;;;;;;;23.07;63.35;100691.19;2096193;28;20135;-75
2022/06/19 02:06:58;;;;;;;16.10;5.22;;;;;;;23.07;63.39;100696.59;2098775;28;20554;-75
2022/06/19 02:08:20;;;;;;;12.38;4.00;;;;;;;23.05;63.41;100690.38;2094620;28;20053;-74
2022/06/19 02:09:44;;;;;;;11.40;3.95;;;;;;;23.05;63.23;100691.25;2098291;28;20051;-75
2022/06/19 02:11:08;;;;;;;11.88;4.15;;;;;;;23.05;63.27;100710.09;2093270;28;20097;-75
2022/06/19 02:12:34;;;;;;;15.05;4.10;;;;;;;23.04;63.29;100689.47;2107313;28;20105;-74
2022/06/19 02:13:58;;;;;;;14.38;4.10;;;;;;;23.04;63.18;100699.38;2101105;28;20047;-74
2022/06/19 02:15:20;;;;;;;12.07;4.10;;;;;;;23.04;63.22;100696.69;2094526;28;20094;-75
2022/06/19 02:16:45;;;;;;;15.75;3.47;;;;;;;23.03;63.05;100701.22;2097013;28;20500;-74
2022/06/19 02:18:11;;;;;;;18.80;4.05;;;;;;;23.02;63.06;100704.84;2094214;28;20143;-74
2022/06/19 02:19:34;;;;;;;15.48;3.88;;;;;;;23.01;62.93;100699.50;2105265;28;20122;-75
2022/06/19 02:20:55;;;;;;;15.48;4.50;;;;;;;23.02;63.06;100698.56;2104635;28;20174;-74
2022/06/19 02:22:18;;;;;;;9.73;3.50;;;;;;;23.01;63.20;100702.19;2100384;28;20122;-74
2022/06/19 02:23:42;;;;;;;13.75;3.85;;;;;;;23.02;63.29;100698.56;2088748;28;20044;-74
2022/06/19 02:25:04;;;;;;;14.35;3.83;;;;;;;23.00;63.26;100701.31;2091541;28;20087;-73
2022/06/19 02:26:27;;;;;;;14.95;4.50;;;;;;;22.99;63.33;100707.63;2090554;28;20040;-74
2022/06/19 02:27:52;;;;;;;16.00;3.58;;;;;;;23.00;63.17;100717.47;2104217;28;20048;-74
2022/06/19 02:29:17;;;;;;;14.07;4.10;;;;;;;22.99;63.36;100709.44;2104390;28;20072;-74
2022/06/19 02:30:40;;;;;;;11.27;3.63;;;;;;;22.97;63.35;100709.50;2103883;28;20431;-74
2022/06/19 02:32:02;;;;;;;13.73;3.63;;;;;;;22.97;63.67;100716.72;2101945;28;20047;-74
2022/06/19 02:33:30;;;;;;;10.02;4.43;;;;;;;22.97;63.59;100711.34;2093101;28;20037;-75
2022/06/19 02:34:53;;;;;;;10.25;3.20;;;;;;;22.96;63.73;100712.25;2101170;28;20048;-74
2022/06/19 02:36:41;;;;;;;17.90;5.03;;;;;;;22.96;63.78;100715.84;2100847;28;20044;-74
2022/06/19 02:38:08;;;;;;;12.98;3.90;;;;;;;22.96;63.75;100709.56;2080145;28;20069;-74
2022/06/19 02:39:37;;;;;;;13.93;3.80;;;;;;;22.97;63.50;100719.41;2093009;28;20127;-74
2022/06/19 02:41:07;;;;;;;13.10;3.67;;;;;;;22.97;63.73;100716.72;2096103;28;20096;-74
2022/06/19 02:42:34;;;;;;;12.90;3.67;;;;;;;22.96;63.67;100723.91;2111248;28;20071;-74
2022/06/19 02:44:01;;;;;;;10.15;3.67;;;;;;;22.97;63.65;100717.56;2089475;28;20049;-74
2022/06/19 02:45:26;;;;;;;14.18;3.47;;;;;;;22.96;63.74;100726.63;2099326;28;20612;-74
2022/06/19 02:46:48;;;;;;;16.77;3.58;;;;;;;22.96;63.78;100726.63;2094379;28;20495;-74
2022/06/19 02:48:20;;;;;;;12.85;3.55;;;;;;;22.95;64.02;100719.47;2093837;28;20044;-74
2022/06/19 02:49:42;;;;;;;12.60;3.70;;;;;;;22.95;63.99;100718.59;2097003;28;20138;-74
2022/06/19 02:51:06;;;;;;;11.05;4.07;;;;;;;22.94;64.03;100728.47;2100160;28;20438;-74
2022/06/19 02:52:27;;;;;;;10.85;3.70;;;;;;;22.94;64.03;100725.78;2094934;28;20060;-74
2022/06/19 02:53:50;;;;;;;14.35;4.43;;;;;;;22.94;63.95;100733.84;2092709;28;20127;-74
2022/06/19 02:55:14;;;;;;;12.15;3.90;;;;;;;22.94;63.96;100728.47;2101095;28;20052;-74
2022/06/19 02:56:36;;;;;;;12.10;3.47;;;;;;;22.93;64.01;100732.09;2105609;28;20081;-74
2022/06/19 02:57:59;;;;;;;13.85;3.60;;;;;;;22.94;63.95;100733.84;2098309;28;20047;-74
2022/06/19 02:59:22;;;;;;;10.98;3.72;;;;;;;22.94;64.05;100738.34;2103844;28;20486;-74
2022/06/19 03:00:45;;;;;;;10.73;3.88;;;;;;;22.93;64.10;100741.97;2095215;28;20099;-74
2022/06/19 03:02:07;;;;;;;11.25;4.68;;;;;;;22.94;64.27;100741.06;2100779;28;20040;-74
2022/06/19 03:03:32;;;;;;;13.05;2.97;;;;;;;22.93;64.23;100737.47;2095152;28;20079;-74
2022/06/19 03:04:56;;;;;;;13.73;3.03;;;;;;;22.93;64.38;100748.25;2104987;28;20461;-74
2022/06/19 03:06:18;;;;;;;14.10;4.63;;;;;;;22.91;64.39;100758.19;2103853;28;20044;-74
2022/06/19 03:07:41;;;;;;;12.13;3.03;;;;;;;22.92;64.34;100754.56;2100354;28;20095;-74
2022/06/19 03:09:03;;;;;;;11.07;4.03;;;;;;;22.91;64.32;100747.41;2103713;28;20070;-74
2022/06/19 03:10:26;;;;;;;13.25;3.25;;;;;;;22.91;64.13;100758.19;2094520;28;20044;-74
2022/06/19 03:11:48;;;;;;;12.23;4.10;;;;;;;22.93;64.19;100748.25;2095168;28;20474;-74
2022/06/19 03:13:11;;;;;;;16.25;3.08;;;;;;;22.91;64.44;100752.78;2098991;28;20375;-74
2022/06/19 03:14:34;;;;;;;7.30;2.33;;;;;;;22.91;64.22;100749.22;2103472;28;20452;-74
2022/06/19 03:16:02;;;;;;;13.98;3.83;;;;;;;22.91;64.16;100752.78;2103095;28;20071;-74
2022/06/19 03:17:23;;;;;;;10.40;2.97;;;;;;;22.92;64.21;100757.25;2104921;28;20079;-74
2022/06/19 03:18:46;;;;;;;13.02;2.95;;;;;;;22.93;64.11;100769.78;2101495;28;20036;-74
2022/06/19 03:20:12;;;;;;;14.55;3.53;;;;;;;22.97;64.26;100757.13;2103250;28;20754;-74
2022/06/19 03:21:34;;;;;;;17.17;5.50;;;;;;;22.97;64.14;100749.88;2102695;28;20484;-74
2022/06/19 03:22:57;;;;;;;15.52;3.47;;;;;;;23.00;64.06;100759.69;2101123;28;20542;-75
2022/06/19 03:24:18;;;;;;;10.48;3.38;;;;;;;23.01;64.04;100761.44;2103276;28;20457;-74
2022/06/19 03:25:40;;;;;;;11.40;3.08;;;;;;;23.01;64.11;100765.03;2102954;28;20066;-74
2022/06/19 03:27:02;;;;;;;9.45;2.90;;;;;;;23.03;64.12;100765.84;2102368;28;20127;-74
2022/06/19 03:28:25;;;;;;;11.82;3.33;;;;;;;23.02;64.09;100760.50;2094713;28;20045;-74
2022/06/19 03:29:47;;;;;;;12.00;3.10;;;;;;;23.03;64.12;100764.97;2096544;28;20067;-73
2022/06/19 03:31:14;;;;;;;15.23;3.47;;;;;;;23.05;63.99;100763.09;2106736;28;20067;-74
2022/06/19 03:32:35;;;;;;;7.10;3.10;;;;;;;23.04;64.01;100751.44;2107282;28;20051;-74
2022/06/19 03:33:58;;;;;;;14.38;3.42;;;;;;;23.05;63.91;100755.88;2111908;28;20124;-75
2022/06/19 03:35:21;;;;;;;11.70;3.50;;;;;;;23.05;63.92;100763.97;2102455;28;20171;-74
2022/06/19 03:36:44;;;;;;;12.27;2.50;;;;;;;23.07;64.01;100761.22;2103037;28;20072;-74
2022/06/19 03:38:07;;;;;;;14.40;4.47;;;;;;;23.08;64.04;100772.88;2102961;28;20126;-74
2022/06/19 03:39:30;;;;;;;14.75;3.47;;;;;;;23.11;64.10;100772.75;2103363;28;20523;-74
2022/06/19 03:40:52;;;;;;;18.73;4.13;;;;;;;23.13;63.94;100773.59;2105930;28;20071;-75
2022/06/19 03:42:16;;;;;;;14.68;3.40;;;;;;;23.18;63.88;100763.50;2097703;28;20578;-75
2022/06/19 03:43:37;;;;;;;14.23;2.95;;;;;;;23.20;63.61;100761.66;2095060;28;20072;-74
2022/06/19 03:45:01;;;;;;;10.57;3.20;;;;;;;23.22;63.52;100771.44;2102870;28;20420;-75
2022/06/19 03:46:22;;;;;;;11.95;3.08;;;;;;;23.24;63.23;100776.75;2101800;28;20066;-74
2022/06/19 03:47:45;;;;;;;12.35;3.38;;;;;;;23.24;63.13;100779.47;2105309;28;20047;-74
2022/06/19 03:49:07;;;;;;;13.88;3.47;;;;;;;23.25;62.94;100787.50;2106086;28;20048;-74
2022/06/19 03:50:29;;;;;;;16.15;3.55;;;;;;;23.27;63.00;100771.28;2103102;28;20052;-75
2022/06/19 03:51:52;;;;;;;15.32;3.50;;;;;;;23.35;62.89;100777.28;2105238;28;20047;-75
2022/06/19 03:53:14;;;;;;;13.10;3.60;;;;;;;23.45;62.70;100786.75;2103275;28;20075;-74
2022/06/19 03:54:36;;;;;;;14.93;3.33;;;;;;;23.55;62.40;100781.97;2103085;28;20537;-74
2022/06/19 03:55:58;;;;;;;13.63;3.63;;;;;;;23.65;62.28;100772.56;2091260;28;20045;-74
2022/06/19 03:57:21;;;;;;;11.95;3.53;;;;;;;23.72;61.91;100777.69;2102975;28;20089;-74
2022/06/19 03:58:49;;;;;;;12.15;2.80;;;;;;;23.71;61.53;100785.81;2103294;28;20139;-74
2022/06/19 04:00:17;;;;;;;13.13;2.83;;;;;;;23.66;61.52;100782.41;2104986;28;20055;-74
2022/06/19 04:01:41;;;;;;;12.95;3.45;;;;;;;23.62;61.43;100778.97;2106113;28;20455;-74
2022/06/19 04:03:03;;;;;;;10.52;3.03;;;;;;;23.65;61.37;100769.88;2094734;28;20139;-74
2022/06/19 04:04:26;;;;;;;9.90;2.28;;;;;;;23.64;61.19;100785.16;2100555;28;20051;-74
2022/06/19 04:05:47;;;;;;;10.50;2.90;;;;;;;23.62;61.26;100778.09;2101756;28;20039;-74
2022/06/19 04:07:13;;;;;;;17.27;3.08;;;;;;;23.60;61.17;100786.22;2102939;28;20055;-74
2022/06/19 04:08:34;;;;;;;10.25;3.53;;;;;;;23.59;61.18;100781.78;2096983;28;20041;-74
2022/06/19 04:10:00;;;;;;;9.80;2.60;;;;;;;23.61;61.40;100787.13;2098040;28;20046;-74
2022/06/19 04:11:24;;;;;;;12.25;3.10;;;;;;;23.62;61.16;100780.78;2103685;28;20052;-74
2022/06/19 04:12:47;;;;;;;11.90;3.20;;;;;;;23.60;61.20;100783.53;2094705;28;20140;-74
2022/06/19 04:14:09;;;;;;;10.02;3.05;;;;;;;23.60;61.12;100793.44;2103255;28;20105;-74
2022/06/19 04:15:33;;;;;;;10.45;2.60;;;;;;;23.65;61.21;100780.66;2094685;28;20048;-74
2022/06/19 04:16:55;;;;;;;8.80;3.15;;;;;;;23.86;60.95;100792.44;2093005;28;20086;-74
2022/06/19 04:18:17;;;;;;;13.00;5.18;;;;;;;24.05;60.49;100786.28;2092068;28;20056;-75
2022/06/19 04:19:40;;;;;;;11.40;2.10;;;;;;;24.09;59.83;100785.19;2086721;28;20084;-75
2022/06/19 04:21:03;;;;;;;12.05;2.83;;;;;;;24.12;59.91;100789.59;2102213;28;20102;-74
2022/06/19 04:22:26;;;;;;;12.20;2.90;;;;;;;24.17;59.80;100791.16;2103240;28;20511;-74
2022/06/19 04:23:50;;;;;;;9.88;2.80;;;;;;;24.24;59.55;100786.44;2102987;28;20051;-74
2022/06/19 04:25:14;;;;;;;21.10;4.40;;;;;;;24.31;59.34;100798.75;2100835;28;20145;-74
2022/06/19 04:26:37;;;;;;;12.00;3.53;;;;;;;24.54;59.29;100793.31;2094096;28;20060;-74
2022/06/19 04:28:00;;;;;;;9.93;2.67;;;;;;;24.76;58.26;100789.69;2102305;28;20619;-75
2022/06/19 04:29:22;;;;;;;9.45;3.08;;;;;;;24.87;57.82;100793.69;2103015;28;20551;-74
2022/06/19 04:30:46;;;;;;;6.10;1.75;;;;;;;25.06;57.40;100791.13;2099951;28;20032;-75
2022/06/19 04:32:09;;;;;;;11.85;2.83;;;;;;;25.31;56.84;100793.59;2104585;28;20058;-74
2022/06/19 04:33:32;;;;;;;11.25;2.47;;;;;;;25.60;56.19;100795.03;2100803;28;20075;-74
2022/06/19 04:34:54;;;;;;;18.40;2.55;;;;;;;25.70;55.92;100802.63;2094470;28;20107;-74
2022/06/19 04:36:19;;;;;;;8.45;2.42;;;;;;;25.68;55.90;100791.00;2095952;28;20135;-74
2022/06/19 04:37:43;;;;;;;12.02;2.78;;;;;;;25.65;56.10;100792.97;2102065;28;20047;-74
2022/06/19 04:39:05;;;;;;;13.90;3.47;;;;;;;25.47;56.17;100797.34;2103921;28;20392;-74
2022/06/19 04:40:29;;;;;;;10.13;2.70;;;;;;;25.37;56.76;100796.03;2105353;28;20051;-74
2022/06/19 04:41:52;;;;;;;10.27;2.40;;;;;;;25.18;56.96;100789.69;2094522;28;20052;-74
2022/06/19 04:43:13;;;;;;;10.00;1.90;;;;;;;24.94;57.06;100806.00;2099601;28;20547;-74
2022/06/19 04:44:36;;;;;;;9.65;2.40;;;;;;;24.78;57.72;100793.19;2111221;28;20116;-74
2022/06/19 04:46:03;;;;;;;12.60;2.70;;;;;;;25.38;57.05;100801.38;2097124;28;20440;-74
2022/06/19 04:47:25;;;;;;;11.98;3.00;;;;;;;25.91;55.25;100799.88;2099262;28;20139;-74
2022/06/19 04:48:47;;;;;;;11.10;2.92;;;;;;;25.93;55.03;100809.66;2101883;28;20139;-74
2022/06/19 04:50:10;;;;;;;12.52;2.72;;;;;;;25.93;55.16;100812.38;2102554;28;20059;-74
2022/06/19 04:51:33;;;;;;;12.88;2.92;;;;;;;26.39;54.29;100804.78;2103132;28;20040;-74
2022/06/19 04:52:54;;;;;;;12.18;4.40;;;;;;;26.66;53.31;100806.13;2102501;28;20135;-75
2022/06/19 04:54:17;;;;;;;15.85;3.65;;;;;;;26.89;52.65;100816.72;2102983;28;20163;-75
2022/06/19 04:55:39;;;;;;;5.32;2.10;;;;;;;27.23;51.93;100815.84;2093960;28;20139;-74
2022/06/19 04:57:01;;;;;;;12.25;2.17;;;;;;;27.32;51.33;100806.34;2103118;28;20059;-74
2022/06/19 04:58:23;;;;;;;11.45;2.35;;;;;;;27.58;50.82;100815.81;2096147;28;20072;-74
2022/06/19 04:59:45;;;;;;;8.10;2.50;;;;;;;27.61;50.45;100815.69;2100185;28;20072;-74
2022/06/19 05:01:12;;;;;;;13.68;2.55;;;;;;;27.69;50.32;100818.84;2101629;28;20039;-74
2022/06/19 05:02:35;;;;;;;9.13;2.25;;;;;;;27.83;50.00;100818.09;2093823;28;20051;-74
2022/06/19 05:03:59;;;;;;;10.55;2.72;;;;;;;27.53;50.48;100823.34;2099926;28;20078;-74
2022/06/19 05:05:21;;;;;;;9.20;2.10;;;;;;;27.47;50.72;100816.38;2102876;28;20134;-74
2022/06/19 05:06:44;;;;;;;15.63;2.60;;;;;;;27.52;50.74;100821.59;2102880;28;20036;-74
2022/06/19 05:08:07;;;;;;;9.32;2.33;;;;;;;27.32;50.94;100818.06;2102555;28;20051;-74
2022/06/19 05:09:29;;;;;;;10.30;1.90;;;;;;;27.24;51.38;100828.44;2104355;28;20048;-74
2022/06/19 05:10:51;;;;;;;7.28;1.73;;;;;;;27.67;50.66;100818.06;2105415;28;20048;-74
2022/06/19 05:12:13;;;;;;;11.02;2.85;;;;;;;28.31;49.35;100817.22;2104609;28;20135;-74
2022/06/19 05:13:35;;;;;;;7.60;1.98;;;;;;;28.88;47.98;100826.59;2103822;28;20499;-75
2022/06/19 05:14:57;;;;;;;13.90;2.42;;;;;;;29.26;47.39;100816.13;2097486;28;20449;-74
2022/06/19 05:16:23;;;;;;;7.70;2.15;;;;;;;29.26;47.06;100817.00;2099521;28;20109;-75
2022/06/19 05:17:45;;;;;;;10.48;2.42;;;;;;;28.70;47.61;100812.19;2094642;28;20135;-74
2022/06/19 05:19:08;;;;;;;10.50;2.20;;;;;;;28.43;47.98;100830.09;2102897;28;20672;-74
2022/06/19 05:20:29;;;;;;;10.32;2.38;;;;;;;28.07;48.37;100823.03;2100551;28;20083;-74
2022/06/19 05:21:53;;;;;;;13.85;2.40;;;;;;;27.99;48.60;100814.44;2094293;28;20048;-75
2022/06/19 05:23:14;;;;;;;12.18;2.78;;;;;;;27.81;48.87;100820.91;2102896;28;20097;-75
2022/06/19 05:24:37;;;;;;;12.68;2.60;;;;;;;27.43;49.52;100820.22;2096721;28;20055;-74
2022/06/19 05:26:01;;;;;;;9.35;2.42;;;;;;;27.11;50.41;100829.19;2096814;28;20067;-74
2022/06/19 05:27:23;;;;;;;12.23;3.03;;;;;;;26.84;50.99;100831.44;2098703;28;20093;-74
2022/06/19 05:28:48;;;;;;;7.63;2.47;;;;;;;26.75;51.54;100835.47;2102574;28;20044;-75
2022/06/19 05:30:13;;;;;;;11.70;2.85;;;;;;;26.86;51.22;100830.38;2101139;28;20044;-75
2022/06/19 05:31:37;;;;;;;12.50;2.50;;;;;;;26.75;51.36;100840.00;2088079;28;20067;-74
2022/06/19 05:32:59;;;;;;;9.35;2.60;;;;;;;26.55;51.87;100833.75;2102029;28;20138;-74
2022/06/19 05:34:21;;;;;;;13.35;2.53;;;;;;;26.46;52.34;100847.72;2096739;28;20041;-74
2022/06/19 05:35:42;;;;;;;13.68;2.30;;;;;;;26.25;52.50;100848.78;2102273;28;20615;-74
2022/06/19 05:37:06;;;;;;;12.98;2.60;;;;;;;26.52;52.48;100841.13;2102594;28;20036;-74
2022/06/19 05:38:28;;;;;;;12.73;2.55;;;;;;;27.18;50.89;100838.72;2101145;28;20043;-74
2022/06/19 05:39:51;;;;;;;10.80;2.20;;;;;;;27.24;50.34;100833.84;2102167;28;20487;-74
2022/06/19 05:41:13;;;;;;;10.35;2.30;;;;;;;27.18;50.72;100841.44;2102241;28;20040;-74
2022/06/19 05:42:36;;;;;;;12.63;2.38;;;;;;;27.52;50.03;100846.00;2098106;28;20046;-74
2022/06/19 05:43:58;;;;;;;7.97;2.22;;;;;;;27.69;49.52;100863.16;2101626;28;20431;-74
2022/06/19 05:45:21;;;;;;;8.75;2.15;;;;;;;27.72;49.57;100843.09;2108852;28;20071;-74
2022/06/19 05:46:44;;;;;;;14.85;2.60;;;;;;;27.41;49.76;100848.38;2103790;28;20572;-74
2022/06/19 05:48:06;;;;;;;7.35;2.08;;;;;;;27.29;50.08;100849.91;2099939;28;21953;-74
2022/06/19 05:49:31;;;;;;;13.15;2.70;;;;;;;27.28;50.24;100850.84;2104130;28;20088;-74
2022/06/19 05:51:01;;;;;;;9.10;2.17;;;;;;;27.80;48.93;100854.41;2103981;28;20044;-74
2022/06/19 05:52:25;;;;;;;9.57;2.53;;;;;;;27.64;49.16;100857.06;2100697;28;20519;-74
2022/06/19 05:53:51;;;;;;;8.98;2.40;;;;;;;27.54;49.03;100863.97;2110763;28;20727;-74
2022/06/19 05:55:14;;;;;;;7.90;2.25;;;;;;;27.91;48.87;100853.81;2093447;28;20381;-74
2022/06/19 05:56:35;;;;;;;9.27;2.35;;;;;;;27.86;48.33;100864.06;2090432;28;20052;-74
2022/06/19 05:57:58;;;;;;;10.68;2.42;;;;;;;27.58;49.04;100867.38;2098449;28;20040;-74
2022/06/19 05:59:21;;;;;;;8.80;2.20;;;;;;;27.93;48.73;100868.19;2101991;28;20075;-74
2022/06/19 06:00:42;;;;;;;13.48;2.42;;;;;;;28.55;47.72;100878.31;2100803;28;20052;-74
2022/06/19 06:02:09;;;;;;;11.60;2.30;;;;;;;29.03;46.79;100871.00;2101965;28;20110;-74
2022/06/19 06:03:32;;;;;;;12.55;2.67;;;;;;;29.19;46.29;100867.28;2096030;28;20743;-73
2022/06/19 06:04:53;;;;;;;10.52;2.33;;;;;;;29.66;45.47;100872.59;2090412;28;20147;-74
2022/06/19 06:06:18;;;;;;;10.38;2.72;;;;;;;30.09;44.41;100878.97;2099109;28;20043;-74
2022/06/19 06:07:40;;;;;;;11.15;2.58;;;;;;;30.45;43.61;100864.81;2101404;28;20104;-74
2022/06/19 06:09:02;;;;;;;8.68;2.22;;;;;;;30.81;42.91;100877.88;2103982;28;20044;-74
2022/06/19 06:10:24;;;;;;;8.27;2.17;;;;;;;31.04;42.50;100876.34;2099883;28;20189;-74
2022/06/19 06:11:47;;;;;;;7.45;1.92;;;;;;;31.02;42.27;100874.69;2092520;28;20053;-74
2022/06/19 06:13:10;;;;;;;8.60;1.98;;;;;;;31.38;41.28;100874.94;2090866;28;20056;-74
2022/06/19 06:14:32;;;;;;;9.45;2.20;;;;;;;31.13;41.40;100877.59;2102398;28;20071;-74
2022/06/19 06:15:55;;;;;;;10.60;2.97;;;;;;;30.71;41.83;100876.75;2093651;28;20041;-73
2022/06/19 06:17:21;;;;;;;7.80;2.17;;;;;;;30.81;42.26;100886.06;2094669;28;20143;-74
2022/06/19 06:18:44;;;;;;;11.45;2.35;;;;;;;31.16;41.36;100880.13;2102216;28;20044;-74
2022/06/19 06:20:07;;;;;;;9.82;2.30;;;;;;;31.37;41.05;100878.66;2095747;28;20101;-74
2022/06/19 06:21:30;;;;;;;10.00;2.00;;;;;;;31.38;40.96;100885.84;2101726;28;20179;-74
2022/06/19 06:22:52;;;;;;;9.98;2.30;;;;;;;31.78;40.51;100878.50;2100883;28;20145;-74
2022/06/19 06:24:16;;;;;;;8.95;2.45;;;;;;;32.05;39.75;100883.84;2101154;28;20617;-74
2022/06/19 06:25:42;;;;;;;14.43;2.70;;;;;;;31.68;40.46;100874.69;2104880;28;20396;-74
2022/06/19 06:27:06;;;;;;;14.25;2.88;;;;;;;31.79;40.67;100874.78;2103124;28;20064;-74